EDT,Max TemperatureF,Mean TemperatureF,Min TemperatureF,Max Dew PointF,MeanDew PointF,Min DewpointF,Max Humidity, Mean Humidity, Min Humidity, Max Sea Level PressureIn, Mean Sea Level PressureIn, Min Sea Level PressureIn, Max VisibilityMiles, Mean VisibilityMiles, Min VisibilityMiles, Max Wind SpeedMPH, Mean Wind SpeedMPH, Max Gust SpeedMPH,PrecipitationIn, CloudCover, Events, WindDirDegrees
2013-9-1,75,71,66,72,69,65,100,94,87,29.92,29.88,29.82,10,6,0,18,7,25,1.61,7,Fog-Rain-Thunderstorm,216
2013-9-2,75,72,69,72,70,69,100,94,87,29.88,29.82,29.74,10,5,0,13,6,17,0.15,7,Fog-Rain-Thunderstorm,201
2013-9-3,76,71,65,70,64,54,100,85,69,29.84,29.78,29.73,10,8,5,14,7,17,0.00,5,,252
2013-9-4,75,66,56,57,54,51,100,73,46,29.94,29.91,29.83,10,10,10,18,11,24,0.00,0,,267
2013-9-5,68,60,52,59,49,36,93,64,34,30.16,30.00,29.89,10,10,10,15,8,19,0.02,4,Rain,320
2013-9-6,64,57,49,44,38,34,80,59,37,30.26,30.19,30.12,10,10,10,13,8,19,0.00,0,,308
2013-9-7,73,62,50,55,47,41,74,56,37,30.11,30.01,29.88,10,10,10,17,11,22,T,2,Rain,250
2013-9-8,70,61,51,58,49,34,87,58,29,30.11,29.88,29.78,10,10,10,25,13,32,0.00,2,,302
2013-9-9,65,55,45,49,41,35,77,60,42,30.25,30.19,30.12,10,10,10,17,8,22,0.00,0,,265
2013-9-10,73,64,55,68,62,51,100,92,84,30.16,30.12,30.06,10,6,2,21,12,27,0.08,6,Rain,227
2013-9-11,90,79,68,74,70,65,100,76,52,30.11,30.07,29.99,10,5,0,26,11,38,T,1,Fog,236
2013-9-12,82,74,65,71,68,64,100,82,63,29.97,29.81,29.70,10,6,1,23,12,31,0.81,5,Rain-Thunderstorm,224
2013-9-13,74,65,56,65,60,52,100,82,64,29.79,29.68,29.61,10,10,4,21,8,28,0.06,6,Rain,286
2013-9-14,64,57,50,51,49,47,93,75,56,30.08,29.93,29.79,10,10,10,20,11,26,T,4,,304
2013-9-15,66,56,46,50,46,41,93,68,43,30.19,30.12,30.08,10,10,10,13,7,17,0.00,0,,260
2013-9-16,65,54,42,51,46,34,89,73,56,30.26,30.10,30.04,10,10,10,18,10,22,T,3,Rain,304
2013-9-17,59,50,41,40,35,31,83,62,40,30.44,30.37,30.28,10,10,10,15,8,19,0.00,0,,3
2013-9-18,68,57,45,47,42,38,77,56,35,30.35,30.26,30.17,10,10,10,16,9,21,0.00,0,,260
2013-9-19,74,63,51,51,47,44,77,58,38,30.15,30.12,30.08,10,10,10,15,9,20,0.00,0,,265
2013-9-20,75,63,51,54,51,46,93,65,36,30.10,30.06,30.02,10,10,9,13,7,16,0.00,0,,247
2013-9-21,71,63,54,63,58,54,100,85,70,30.04,29.92,29.73,10,8,0,24,13,31,0.01,6,Fog,206
2013-9-22,67,57,46,65,55,41,100,76,52,29.86,29.71,29.62,10,9,4,24,13,34,0.49,5,Rain,267
2013-9-23,60,51,42,41,38,36,83,65,47,30.04,29.95,29.86,10,10,10,26,11,35,0.00,0,,312
2013-9-24,64,51,38,41,38,36,92,64,36,30.02,29.93,29.85,10,10,10,20,10,24,0.00,0,,305
2013-9-25,66,56,46,50,45,40,86,71,55,30.00,29.93,29.90,10,10,10,15,7,20,0.00,3,,351
2013-9-26,64,58,51,49,46,42,83,66,48,30.14,30.05,30.00,10,10,10,10,4,13,0.00,5,,3
2013-9-27,62,57,51,50,48,46,89,75,60,30.29,30.21,30.14,10,10,10,13,6,17,0.00,6,,6
2013-9-28,70,61,51,51,49,48,77,62,47,30.35,30.30,30.27,10,10,10,12,5,15,0.00,1,,29
2013-9-29,66,57,47,51,45,39,100,70,40,30.27,30.20,30.14,10,10,10,8,4,12,0.00,0,,77
2013-9-30,67,55,43,48,45,40,93,69,44,30.13,30.06,29.99,10,10,10,10,4,13,0.00,0,,354